Tropical Cyclones
[Index]
Main Index Home Page Stock Weather Photos Extreme Storms Discussion Storm News and Storm Chasing Reports Tropical Cyclones / Hurricanes / Typhoons Weather Data and Links Wild Fires / Bushfires Weather Observation Techniques Weather Picture Catalogue Tornado Pictures and Reports Stock Video Footage and DVDs for sale
Season 1955-1956 Tropical Cyclone 195622 Track Map
Season 1955-1956 Summaries: [BoM-AU] [JTWC-AU] [JTWC-SIO] [JTWC-SPAC] [JTWC-SH]
<<- Previous TC | JTWC 1955-1956 Season | Next TC ->>

click for intensity scale information  Lat/long Grid: Show Hide

 Date Labels: Show Hide

Joint Typhoon Warning Centre Cyclone Data

Name: 195622
Number: 264 / 5622

16 Feb 1956 00:00 UTC to 01 Mar 1956 18:00 UTC

    date/time    lat    long     hPa   cat  kts
1956-02-16 00   15.0   123.8                              
1956-02-16 06   15.4   123.1                              
1956-02-16 12   16.0   122.5                              
1956-02-16 18   16.6   122.1                              
1956-02-17 00   17.3   121.9                              
1956-02-17 06   18.0   122.1                              
1956-02-17 12   18.7   122.8                              
1956-02-17 18   19.2   123.7                              
1956-02-18 00   19.4   124.7                              
1956-02-18 06   19.6   125.6                              
1956-02-18 12   19.7   126.5                              
1956-02-18 18   19.9   127.4                              
1956-02-19 00   20.0   128.1                              
1956-02-19 06   20.5   128.8                              
1956-02-19 12   21.0   129.5                              
1956-02-19 18   21.4   130.3                              
1956-02-20 00   21.3   131.0                              
1956-02-20 06   21.0   131.4                              
1956-02-20 12   20.6   131.9                              
1956-02-20 18   20.2   132.4                              
1956-02-21 00   20.0   132.9                              
1956-02-21 06   20.2   133.0                              
1956-02-21 12   20.4   132.9                              
1956-02-21 18   20.6   132.8                              
1956-02-22 00   20.8   132.7                              
1956-02-22 06   20.9   132.6                              
1956-02-22 12   20.9   132.5                              
1956-02-22 18   20.9   132.4                              
1956-02-23 00   20.9   132.3                              
1956-02-23 06   20.6   131.8                              
1956-02-23 12   20.2   131.3                              
1956-02-23 18   19.8   131.0                              
1956-02-24 00   19.2   130.6                              
1956-02-24 06   17.6   128.8                              
1956-02-24 12   16.5   126.5                              
1956-02-24 18   16.3   123.9                              
1956-02-25 00   16.7   121.9                              
1956-02-25 06   17.3   120.9                              
1956-02-25 12   17.8   120.2                              
1956-02-25 18   18.3   119.5                              
1956-02-26 00   18.7   118.9                              
1956-02-26 06   19.0   118.4                              
1956-02-26 12   19.2   117.9                              
1956-02-26 18   19.5   117.4                              
1956-02-27 00   19.7   117.0                              
1956-02-27 06   19.9   116.8                              
1956-02-27 12   20.0   116.6                              
1956-02-27 18   20.1   116.3                              
1956-02-28 00   20.2   115.9                              
1956-02-28 06   20.4   115.6                              
1956-02-28 12   20.5   115.2                              
1956-02-28 18   20.8   114.9                              
1956-02-29 00   21.2   114.5                              
1956-02-29 06   21.7   113.9                              
1956-02-29 12   22.3   113.3                              
1956-02-29 18   23.1   112.8                              
1956-03-01 00   24.2   112.3                              
1956-03-01 06   25.8   112.2                              
1956-03-01 12   27.2   112.3                              
1956-03-01 18   28.5   112.9                              
Winds are 1-min average.

Tropical cyclone tracks developed by Michael Bath using data from the Joint Typhoon Warning Centre Best Tracks and Google Maps.


[Australian Severe Weather index] [Copyright Notice] [Email Contacts] [Search This Site] [Privacy Policy]
Document: tropical_cyclone_195622.htm Updated: 18 September 2016